createdAt,value
2022-07-30T00:00:50.434Z,23.07
2022-07-30T00:03:20.627Z,23.05
2022-07-30T00:05:50.666Z,22.88
2022-07-30T00:08:20.664Z,23.06
2022-07-30T00:10:51.626Z,23.11
2022-07-30T00:13:21.797Z,23.06
2022-07-30T00:15:53.491Z,23.01
2022-07-30T00:18:23.394Z,22.81
2022-07-30T00:20:53.482Z,22.88
2022-07-30T00:23:26.669Z,22.91
2022-07-30T00:25:56.875Z,22.77
2022-07-30T00:28:26.695Z,22.74
2022-07-30T00:30:58.163Z,22.66
2022-07-30T00:33:28.146Z,22.60
2022-07-30T00:35:58.286Z,22.51
2022-07-30T00:38:28.230Z,22.54
2022-07-30T00:40:59.335Z,22.66
2022-07-30T00:43:30.356Z,22.61
2022-07-30T00:46:01.600Z,22.54
2022-07-30T00:48:31.668Z,22.48
2022-07-30T00:51:01.742Z,22.44
2022-07-30T00:53:33.378Z,22.42
2022-07-30T00:56:04.831Z,22.33
2022-07-30T00:58:35.020Z,22.40
2022-07-30T01:01:06.458Z,22.29
2022-07-30T01:03:38.423Z,22.23
2022-07-30T01:06:14.149Z,22.14
2022-07-30T01:08:44.525Z,22.10
2022-07-30T01:11:14.570Z,21.91
2022-07-30T01:13:46.244Z,22.08
2022-07-30T01:16:18.461Z,22.27
2022-07-30T01:19:06.796Z,22.36
2022-07-30T01:21:41.390Z,22.22
2022-07-30T01:24:23.525Z,22.13
2022-07-30T01:26:56.554Z,22.21
2022-07-30T01:29:28.722Z,22.25
2022-07-30T01:32:01.222Z,22.13
2022-07-30T01:34:35.197Z,22.13
2022-07-30T01:37:08.544Z,22.02
2022-07-30T01:39:40.108Z,21.93
2022-07-30T01:42:14.693Z,21.91
2022-07-30T01:44:47.971Z,21.71
2022-07-30T01:47:19.954Z,21.56
2022-07-30T01:49:52.208Z,21.80
2022-07-30T01:52:23.776Z,21.71
2022-07-30T01:54:57.564Z,21.72
2022-07-30T01:57:28.846Z,21.65
2022-07-30T02:00:03.336Z,21.57
2022-07-30T02:02:33.345Z,21.56
2022-07-30T02:05:04.002Z,21.57
2022-07-30T02:07:40.604Z,21.51
2022-07-30T02:10:15.523Z,21.42
2022-07-30T02:12:52.416Z,21.36
2022-07-30T02:15:30.359Z,21.43
2022-07-30T02:18:04.091Z,21.11
2022-07-30T02:20:38.404Z,21.29
2022-07-30T02:23:12.435Z,21.09
2022-07-30T02:25:48.302Z,20.99
2022-07-30T02:28:22.604Z,21.13
2022-07-30T02:31:01.124Z,21.27
2022-07-30T02:33:41.173Z,21.31
2022-07-30T02:36:21.055Z,21.24
2022-07-30T02:38:52.552Z,21.29
2022-07-30T02:41:25.001Z,21.22
2022-07-30T02:43:58.227Z,21.19
2022-07-30T02:46:29.336Z,21.17
2022-07-30T02:49:00.397Z,21.08
2022-07-30T02:51:32.154Z,20.98
2022-07-30T02:54:04.504Z,20.99
2022-07-30T02:56:36.644Z,20.79
2022-07-30T02:59:09.871Z,21.11
2022-07-30T03:01:40.063Z,21.11
2022-07-30T03:04:11.286Z,21.29
2022-07-30T03:06:43.152Z,21.14
2022-07-30T03:09:16.766Z,20.75
2022-07-30T03:11:48.600Z,20.84
2022-07-30T03:14:20.833Z,20.59
2022-07-30T03:16:57.496Z,20.44
2022-07-30T03:19:32.391Z,20.43
2022-07-30T03:22:04.469Z,20.33
2022-07-30T03:24:36.269Z,20.36
2022-07-30T03:27:08.140Z,20.52
2022-07-30T03:29:41.051Z,20.53
2022-07-30T03:32:13.708Z,20.53
2022-07-30T03:34:45.529Z,20.46
2022-07-30T03:37:17.278Z,20.54
2022-07-30T03:39:48.138Z,20.57
2022-07-30T03:42:18.424Z,20.67
2022-07-30T03:44:50.580Z,20.33
2022-07-30T03:47:23.818Z,20.40
2022-07-30T03:49:53.879Z,20.60
2022-07-30T03:52:23.843Z,20.57
2022-07-30T03:54:54.373Z,20.63
2022-07-30T03:57:24.501Z,20.79
2022-07-30T03:59:56.025Z,20.62
2022-07-30T04:02:26.024Z,20.54
2022-07-30T04:04:56.417Z,20.54
2022-07-30T04:07:26.635Z,20.65
2022-07-30T04:09:56.558Z,20.69
2022-07-30T04:12:27.144Z,20.68
2022-07-30T04:14:59.191Z,20.77
2022-07-30T04:17:36.480Z,20.83
2022-07-30T04:20:14.214Z,21.07
2022-07-30T04:22:46.909Z,20.89
2022-07-30T04:25:24.069Z,20.82
2022-07-30T04:28:03.145Z,20.97
2022-07-30T04:30:35.418Z,21.09
2022-07-30T04:33:06.343Z,21.10
2022-07-30T04:35:51.139Z,21.08
2022-07-30T04:38:22.331Z,21.12
2022-07-30T04:40:52.536Z,21.31
2022-07-30T04:43:22.618Z,21.22
2022-07-30T04:45:54.443Z,21.34
2022-07-30T04:48:26.745Z,21.25
2022-07-30T04:51:00.614Z,21.30
2022-07-30T04:53:30.616Z,21.39
2022-07-30T04:56:02.598Z,21.41
2022-07-30T04:58:34.904Z,21.55
2022-07-30T05:01:07.053Z,21.56
2022-07-30T05:03:47.964Z,21.75
2022-07-30T05:06:18.744Z,21.98
2022-07-30T05:08:49.484Z,22.00
2022-07-30T05:11:19.485Z,22.20
2022-07-30T05:13:50.498Z,22.40
2022-07-30T05:16:22.662Z,22.41
2022-07-30T05:18:52.823Z,22.39
2022-07-30T05:21:23.068Z,22.53
2022-07-30T05:23:53.130Z,22.76
2022-07-30T05:26:27.666Z,22.87
2022-07-30T05:28:58.105Z,23.04
2022-07-30T05:31:29.502Z,23.12
2022-07-30T05:34:03.669Z,23.11
2022-07-30T05:36:34.428Z,23.40
2022-07-30T05:39:05.657Z,23.44
2022-07-30T05:41:35.750Z,23.74
2022-07-30T05:44:06.228Z,23.85
2022-07-30T05:46:38.034Z,23.94
2022-07-30T05:49:08.356Z,23.96
2022-07-30T05:51:38.462Z,24.13
2022-07-30T05:54:08.429Z,24.28
2022-07-30T05:56:38.496Z,24.32
2022-07-30T05:59:08.447Z,24.33
2022-07-30T06:01:39.892Z,24.38
2022-07-30T06:04:09.840Z,24.60
2022-07-30T06:06:39.755Z,24.75
2022-07-30T06:09:10.282Z,24.88
2022-07-30T06:11:40.434Z,24.71
2022-07-30T06:14:10.880Z,24.78
2022-07-30T06:16:45.452Z,24.84
2022-07-30T06:19:19.675Z,25.07
2022-07-30T06:22:05.480Z,25.06
2022-07-30T06:24:37.382Z,25.16
2022-07-30T06:27:08.124Z,25.20
2022-07-30T06:29:38.143Z,25.35
2022-07-30T06:32:09.652Z,25.48
2022-07-30T06:34:39.585Z,25.58
2022-07-30T06:37:10.748Z,25.60
2022-07-30T06:39:57.685Z,25.62
2022-07-30T06:42:29.038Z,25.81
2022-07-30T06:44:59.016Z,25.87
2022-07-30T06:47:31.358Z,25.93
2022-07-30T06:50:03.110Z,26.00
2022-07-30T06:52:34.087Z,25.92
2022-07-30T06:55:04.887Z,26.03
2022-07-30T06:57:40.112Z,26.16
2022-07-30T07:00:13.365Z,26.28
2022-07-30T07:02:44.770Z,26.34
2022-07-30T07:05:14.860Z,26.45
2022-07-30T07:07:57.837Z,26.52
2022-07-30T07:10:29.399Z,26.54
2022-07-30T07:13:01.772Z,26.58
2022-07-30T07:15:36.607Z,26.59
2022-07-30T07:18:09.605Z,26.68
2022-07-30T07:20:39.960Z,26.72
2022-07-30T07:23:11.998Z,26.80
2022-07-30T07:25:42.642Z,26.78
2022-07-30T07:28:13.665Z,26.91
2022-07-30T07:30:44.521Z,27.04
2022-07-30T07:33:16.464Z,27.12
2022-07-30T07:35:50.292Z,27.05
2022-07-30T07:38:20.686Z,27.09
2022-07-30T07:40:50.756Z,27.18
2022-07-30T07:43:20.737Z,27.27
2022-07-30T07:45:50.659Z,27.27
2022-07-30T07:48:22.490Z,27.30
2022-07-30T07:50:55.014Z,27.33
2022-07-30T07:53:28.321Z,27.38
2022-07-30T07:55:59.769Z,27.49
2022-07-30T07:58:31.032Z,27.51
2022-07-30T08:01:01.932Z,27.60
2022-07-30T08:03:33.643Z,27.61
2022-07-30T08:06:05.724Z,27.75
2022-07-30T08:08:37.649Z,27.85
2022-07-30T08:11:08.237Z,27.95
2022-07-30T08:13:52.165Z,27.96
2022-07-30T08:16:23.767Z,28.01
2022-07-30T08:18:55.098Z,28.04
2022-07-30T08:21:25.569Z,28.08
2022-07-30T08:23:55.493Z,28.05
2022-07-30T08:26:25.946Z,28.17
2022-07-30T08:28:55.746Z,28.13
2022-07-30T08:31:25.689Z,28.31
2022-07-30T08:33:57.364Z,28.45
2022-07-30T08:36:27.361Z,28.47
2022-07-30T08:38:57.432Z,28.52
2022-07-30T08:41:28.228Z,28.38
2022-07-30T08:44:01.363Z,28.49
2022-07-30T08:46:33.217Z,28.54
2022-07-30T08:49:07.562Z,28.52
2022-07-30T08:51:41.103Z,28.61
2022-07-30T08:54:11.078Z,28.71
2022-07-30T08:56:41.054Z,28.74
2022-07-30T08:59:12.904Z,28.75
2022-07-30T09:01:42.864Z,28.85
2022-07-30T09:04:14.431Z,28.85
2022-07-30T09:06:44.370Z,28.89
2022-07-30T09:09:14.224Z,28.88
2022-07-30T09:11:44.769Z,28.88
2022-07-30T09:14:16.325Z,29.02
2022-07-30T09:16:46.632Z,29.01
2022-07-30T09:19:19.915Z,29.07
2022-07-30T09:21:58.228Z,29.26
2022-07-30T09:24:29.164Z,29.23
2022-07-30T09:27:00.885Z,29.30
2022-07-30T09:29:32.456Z,29.41
2022-07-30T09:32:04.255Z,29.37
2022-07-30T09:34:37.729Z,29.30
2022-07-30T09:37:20.450Z,29.38
2022-07-30T09:39:59.469Z,29.41
2022-07-30T09:42:32.076Z,29.54
2022-07-30T09:45:08.232Z,29.41
2022-07-30T09:47:39.699Z,29.51
2022-07-30T09:50:18.011Z,29.58
2022-07-30T09:53:11.786Z,29.43
2022-07-30T09:55:42.602Z,29.67
2022-07-30T09:58:20.028Z,29.57
2022-07-30T10:00:59.422Z,29.52
2022-07-30T10:03:33.870Z,29.56
2022-07-30T10:06:14.027Z,29.62
2022-07-30T10:08:48.255Z,29.61
2022-07-30T10:11:22.779Z,29.68
2022-07-30T10:13:56.745Z,29.75
2022-07-30T10:16:31.086Z,29.77
2022-07-30T10:19:01.663Z,29.83
2022-07-30T10:21:36.147Z,29.90
2022-07-30T10:24:08.213Z,29.84
2022-07-30T10:26:38.427Z,29.77
2022-07-30T10:29:08.576Z,29.78
2022-07-30T10:31:48.862Z,29.85
2022-07-30T10:34:23.589Z,29.99
2022-07-30T10:37:04.830Z,29.99
2022-07-30T10:39:40.106Z,30.08
2022-07-30T10:42:23.081Z,30.04
2022-07-30T10:45:18.087Z,30.21
2022-07-30T10:47:50.018Z,30.20
2022-07-30T10:50:22.682Z,30.20
2022-07-30T10:52:56.260Z,30.29
2022-07-30T10:55:32.865Z,30.34
2022-07-30T10:58:12.414Z,30.33
2022-07-30T11:01:00.974Z,30.29
2022-07-30T11:03:41.702Z,30.31
2022-07-30T11:06:29.345Z,30.33
2022-07-30T11:09:00.710Z,30.34
2022-07-30T11:12:01.401Z,30.33
2022-07-30T11:15:07.286Z,30.27
2022-07-30T11:18:12.339Z,30.32
2022-07-30T11:20:48.849Z,30.44
2022-07-30T11:23:40.698Z,30.62
2022-07-30T11:26:14.094Z,30.48
2022-07-30T11:28:49.626Z,30.51
2022-07-30T11:31:55.042Z,30.83
2022-07-30T11:34:29.814Z,30.83
2022-07-30T11:37:19.094Z,30.72
2022-07-30T11:40:11.618Z,30.78
2022-07-30T11:42:43.811Z,30.84
2022-07-30T11:45:27.107Z,30.87
2022-07-30T11:48:00.302Z,30.80
2022-07-30T11:50:33.027Z,30.77
2022-07-30T11:53:07.509Z,30.80
2022-07-30T11:55:40.046Z,30.97
2022-07-30T11:58:13.071Z,30.93
2022-07-30T12:00:47.972Z,30.79
2022-07-30T12:03:19.389Z,30.77
2022-07-30T12:05:51.148Z,30.95
2022-07-30T12:08:33.466Z,31.03
2022-07-30T12:11:06.094Z,31.04
2022-07-30T12:13:44.066Z,30.99
2022-07-30T12:16:18.158Z,30.93
2022-07-30T12:18:48.739Z,30.83
2022-07-30T12:21:19.089Z,30.80
2022-07-30T12:23:56.775Z,31.03
2022-07-30T12:26:29.399Z,31.06
2022-07-30T12:29:05.044Z,30.99
2022-07-30T12:31:38.551Z,31.02
2022-07-30T12:34:23.285Z,31.19
2022-07-30T12:36:53.940Z,31.11
2022-07-30T12:39:26.405Z,31.10
2022-07-30T12:41:58.657Z,31.03
2022-07-30T12:44:41.080Z,31.15
2022-07-30T12:47:24.153Z,31.12
2022-07-30T12:49:55.837Z,31.03
2022-07-30T12:52:30.850Z,31.17
2022-07-30T12:55:04.416Z,31.31
2022-07-30T12:57:57.001Z,31.22
2022-07-30T13:00:30.714Z,31.21
2022-07-30T13:03:01.111Z,31.31
2022-07-30T13:05:45.064Z,31.04
2022-07-30T13:08:15.700Z,31.18
2022-07-30T13:10:59.836Z,31.08
2022-07-30T13:13:32.882Z,31.04
2022-07-30T13:16:08.203Z,31.27
2022-07-30T13:18:38.753Z,31.23
2022-07-30T13:21:09.555Z,31.14
2022-07-30T13:23:41.228Z,31.03
2022-07-30T13:26:12.427Z,31.07
2022-07-30T13:28:42.526Z,31.19
2022-07-30T13:31:14.386Z,31.06
2022-07-30T13:33:45.236Z,31.00
2022-07-30T13:36:15.768Z,30.90
2022-07-30T13:38:45.963Z,30.84
2022-07-30T13:41:22.601Z,30.92
2022-07-30T13:43:52.682Z,30.91
2022-07-30T13:46:24.133Z,30.87
2022-07-30T13:48:54.341Z,31.14
2022-07-30T13:51:24.526Z,31.33
2022-07-30T13:53:55.236Z,31.26
2022-07-30T13:56:25.628Z,31.50
2022-07-30T13:58:56.487Z,31.38
2022-07-30T14:01:28.479Z,31.14
2022-07-30T14:03:58.915Z,31.34
2022-07-30T14:06:29.202Z,31.07
2022-07-30T14:08:59.551Z,31.24
2022-07-30T14:11:29.647Z,31.26
2022-07-30T14:14:01.062Z,31.31
2022-07-30T14:16:49.616Z,31.19
2022-07-30T14:19:24.682Z,31.31
2022-07-30T14:21:55.006Z,31.17
2022-07-30T14:24:25.293Z,31.55
2022-07-30T14:26:58.173Z,31.50
2022-07-30T14:29:29.819Z,31.57
2022-07-30T14:32:01.403Z,31.62
2022-07-30T14:34:31.478Z,31.65
2022-07-30T14:37:02.396Z,31.65
2022-07-30T14:39:34.998Z,31.55
2022-07-30T14:42:06.473Z,31.43
2022-07-30T14:44:36.823Z,31.45
2022-07-30T14:47:09.123Z,31.49
2022-07-30T14:49:39.239Z,31.34
2022-07-30T14:52:09.427Z,31.32
2022-07-30T14:54:40.101Z,31.25
2022-07-30T14:57:11.463Z,31.43
2022-07-30T14:59:41.631Z,31.52
2022-07-30T15:02:13.032Z,31.28
2022-07-30T15:04:43.314Z,31.32
2022-07-30T15:07:13.519Z,31.49
2022-07-30T15:09:43.644Z,31.39
2022-07-30T15:12:23.834Z,31.26
2022-07-30T15:14:57.782Z,31.24
2022-07-30T15:17:29.368Z,31.33
2022-07-30T15:20:00.535Z,31.33
2022-07-30T15:22:31.522Z,31.39
2022-07-30T15:25:02.095Z,31.32
2022-07-30T15:27:34.267Z,31.16
2022-07-30T15:30:06.259Z,31.12
2022-07-30T15:32:39.029Z,31.14
2022-07-30T15:35:13.591Z,31.14
2022-07-30T15:37:44.218Z,31.10
2022-07-30T15:40:14.543Z,31.01
2022-07-30T15:42:44.883Z,30.97
2022-07-30T15:45:17.680Z,31.11
2022-07-30T15:47:49.774Z,31.28
2022-07-30T15:50:19.914Z,31.30
2022-07-30T15:52:51.630Z,31.37
2022-07-30T15:55:22.311Z,31.28
2022-07-30T15:57:52.546Z,31.35
2022-07-30T16:00:25.608Z,31.39
2022-07-30T16:03:01.464Z,31.31
2022-07-30T16:05:52.533Z,31.37
2022-07-30T16:08:22.696Z,31.42
2022-07-30T16:10:53.199Z,31.30
2022-07-30T16:13:23.629Z,31.45
2022-07-30T16:15:54.305Z,31.42
2022-07-30T16:18:26.123Z,31.34
2022-07-30T16:20:58.957Z,31.33
2022-07-30T16:23:36.500Z,31.34
2022-07-30T16:26:09.407Z,31.31
2022-07-30T16:28:40.663Z,31.32
2022-07-30T16:31:10.701Z,31.26
2022-07-30T16:33:42.365Z,31.19
2022-07-30T16:36:12.804Z,31.20
2022-07-30T16:38:42.953Z,31.08
2022-07-30T16:41:13.735Z,30.92
2022-07-30T16:43:43.910Z,31.00
2022-07-30T16:46:14.308Z,30.96
2022-07-30T16:48:50.354Z,30.95
2022-07-30T16:51:20.819Z,30.82
2022-07-30T16:53:50.943Z,30.77
2022-07-30T16:56:21.508Z,30.57
2022-07-30T16:58:51.694Z,30.82
2022-07-30T17:01:21.808Z,30.61
2022-07-30T17:03:53.386Z,30.50
2022-07-30T17:06:23.653Z,30.68
2022-07-30T17:08:53.909Z,30.57
2022-07-30T17:11:47.441Z,30.64
2022-07-30T17:14:15.713Z,30.60
2022-07-30T17:16:46.219Z,30.57
2022-07-30T17:19:18.196Z,30.56
2022-07-30T17:21:50.554Z,30.41
2022-07-30T17:24:21.261Z,30.41
2022-07-30T17:26:51.690Z,30.38
2022-07-30T17:29:22.183Z,30.27
2022-07-30T17:31:52.426Z,30.28
2022-07-30T17:34:27.079Z,30.20
2022-07-30T17:36:57.291Z,30.16
2022-07-30T17:40:19.872Z,30.11
2022-07-30T17:42:17.936Z,30.08
2022-07-30T17:44:48.295Z,30.09
2022-07-30T17:47:18.573Z,30.11
2022-07-30T17:49:51.645Z,30.02
2022-07-30T17:52:26.606Z,30.01
2022-07-30T17:54:57.221Z,29.96
2022-07-30T17:57:27.759Z,29.95
2022-07-30T17:59:58.155Z,29.97
2022-07-30T18:02:29.299Z,29.70
2022-07-30T18:05:00.985Z,29.75
2022-07-30T18:07:31.472Z,29.76
2022-07-30T18:10:02.089Z,29.69
2022-07-30T18:12:32.623Z,29.63
2022-07-30T18:15:03.815Z,29.64
2022-07-30T18:17:34.826Z,29.60
2022-07-30T18:20:07.882Z,29.50
2022-07-30T18:22:38.203Z,29.57
2022-07-30T18:25:18.015Z,29.47
2022-07-30T18:27:50.197Z,29.37
2022-07-30T18:30:20.423Z,29.30
2022-07-30T18:32:50.556Z,29.30
2022-07-30T18:35:22.290Z,29.27
2022-07-30T18:37:52.455Z,29.22
2022-07-30T18:40:24.236Z,29.20
2022-07-30T18:42:54.766Z,29.17
2022-07-30T18:45:25.715Z,29.24
2022-07-30T18:47:57.151Z,29.25
2022-07-30T18:50:29.051Z,29.19
2022-07-30T18:52:59.065Z,29.15
2022-07-30T18:55:29.111Z,29.11
2022-07-30T18:58:01.313Z,29.12
2022-07-30T19:00:34.353Z,29.09
2022-07-30T19:03:09.979Z,28.94
2022-07-30T19:05:44.577Z,28.93
2022-07-30T19:08:14.660Z,28.90
2022-07-30T19:10:45.180Z,28.89
2022-07-30T19:13:15.922Z,28.77
2022-07-30T19:15:46.930Z,28.79
2022-07-30T19:18:17.614Z,28.65
2022-07-30T19:20:50.893Z,28.65
2022-07-30T19:23:21.479Z,28.60
2022-07-30T19:25:51.541Z,28.66
2022-07-30T19:28:22.027Z,28.59
2022-07-30T19:30:52.124Z,28.68
2022-07-30T19:33:24.314Z,28.59
2022-07-30T19:35:55.945Z,28.58
2022-07-30T19:38:26.159Z,28.52
2022-07-30T19:40:56.951Z,28.38
2022-07-30T19:43:27.202Z,28.39
2022-07-30T19:45:58.781Z,28.49
2022-07-30T19:48:31.646Z,28.48
2022-07-30T19:51:04.415Z,28.37
2022-07-30T19:53:34.939Z,28.36
2022-07-30T19:56:10.711Z,28.21
2022-07-30T19:58:42.240Z,28.16
2022-07-30T20:01:14.719Z,28.28
2022-07-30T20:03:45.549Z,28.11
2022-07-30T20:06:19.384Z,27.91
2022-07-30T20:08:52.485Z,28.03
2022-07-30T20:11:36.029Z,28.04
2022-07-30T20:14:07.008Z,27.98
2022-07-30T20:16:37.821Z,27.98
2022-07-30T20:19:08.339Z,27.94
2022-07-30T20:21:56.383Z,27.94
2022-07-30T20:24:33.069Z,27.95
2022-07-30T20:27:10.083Z,27.86
2022-07-30T20:29:53.446Z,27.71
2022-07-30T20:32:24.865Z,27.74
2022-07-30T20:34:55.596Z,27.70
2022-07-30T20:37:27.770Z,27.70
2022-07-30T20:39:58.171Z,27.73
2022-07-30T20:42:28.586Z,27.70
2022-07-30T20:44:59.558Z,27.65
2022-07-30T20:47:37.489Z,27.66
2022-07-30T20:50:10.580Z,27.57
2022-07-30T20:52:47.006Z,27.56
2022-07-30T20:55:19.344Z,27.61
2022-07-30T21:03:33.502Z,27.46
2022-07-30T21:06:04.638Z,27.40
2022-07-30T21:08:38.340Z,27.28
2022-07-30T21:11:09.590Z,27.38
2022-07-30T21:13:41.399Z,27.35
2022-07-30T21:16:15.724Z,27.33
2022-07-30T21:18:51.897Z,27.28
2022-07-30T21:21:30.397Z,27.17
2022-07-30T21:24:12.400Z,27.19
2022-07-30T21:26:43.186Z,27.24
2022-07-30T21:29:13.422Z,27.20
2022-07-30T21:32:01.247Z,27.19
2022-07-30T21:34:42.052Z,27.17
2022-07-30T21:37:13.075Z,27.15
2022-07-30T21:39:47.433Z,27.13
2022-07-30T21:42:17.694Z,27.11
2022-07-30T21:44:56.097Z,27.12
2022-07-30T21:47:26.151Z,27.11
2022-07-30T21:49:56.413Z,27.09
2022-07-30T21:52:26.597Z,27.06
2022-07-30T21:54:58.076Z,27.05
2022-07-30T21:57:34.889Z,27.05
2022-07-30T22:00:10.756Z,26.93
2022-07-30T22:02:53.310Z,26.86
2022-07-30T22:05:38.610Z,26.93
2022-07-30T22:08:10.498Z,26.90
2022-07-30T22:10:43.619Z,26.74
2022-07-30T22:13:20.787Z,26.76
2022-07-30T22:15:53.373Z,26.81
2022-07-30T22:18:23.861Z,26.84
2022-07-30T22:20:55.536Z,26.80
2022-07-30T22:23:25.439Z,26.66
2022-07-30T22:26:00.072Z,26.61
2022-07-30T22:28:30.221Z,26.29
2022-07-30T22:31:00.289Z,26.29
2022-07-30T22:33:30.478Z,26.09
2022-07-30T22:36:00.988Z,26.14
2022-07-30T22:38:31.705Z,25.98
2022-07-30T22:41:04.266Z,25.77
2022-07-30T22:43:35.600Z,25.60
2022-07-30T22:46:30.519Z,25.61
2022-07-30T22:49:01.395Z,25.52
2022-07-30T22:51:58.682Z,25.46
2022-07-30T22:54:21.928Z,25.34
2022-07-30T22:56:54.256Z,25.26
2022-07-30T22:59:57.711Z,25.33
2022-07-30T23:02:15.459Z,25.28
2022-07-30T23:04:47.879Z,25.23
2022-07-30T23:07:19.198Z,25.14
2022-07-30T23:09:51.532Z,25.17
2022-07-30T23:12:23.791Z,25.26
2022-07-30T23:12:31.416Z,27.71
2022-07-30T23:12:32.821Z,27.57
2022-07-30T23:14:54.729Z,25.16
2022-07-30T23:17:25.777Z,25.27
2022-07-30T23:19:55.787Z,25.16
2022-07-30T23:22:25.769Z,25.24
2022-07-30T23:24:55.639Z,25.27
2022-07-30T23:27:27.398Z,25.24
2022-07-30T23:29:57.604Z,25.34
2022-07-30T23:32:27.779Z,25.18
2022-07-30T23:34:57.819Z,25.31
2022-07-30T23:37:28.091Z,25.25
2022-07-30T23:39:59.367Z,25.16
2022-07-30T23:42:30.706Z,25.16
2022-07-30T23:45:01.827Z,25.15
2022-07-30T23:47:57.262Z,25.04
2022-07-30T23:50:22.281Z,25.19
2022-07-30T23:52:52.307Z,25.18
2022-07-30T23:55:23.594Z,25.14
2022-07-30T23:57:54.838Z,25.23
